createdAt,value
2024-02-21T00:00:25.226Z,605.00
2024-02-21T00:01:25.326Z,605.00
2024-02-21T00:02:25.373Z,604.00
2024-02-21T00:03:25.430Z,604.00
2024-02-21T00:04:25.741Z,601.00
2024-02-21T00:05:25.630Z,604.00
2024-02-21T00:06:25.630Z,603.00
2024-02-21T00:07:25.759Z,603.00
2024-02-21T00:08:25.853Z,604.00
2024-02-21T00:09:25.817Z,604.00
2024-02-21T00:10:25.884Z,603.00
2024-02-21T00:11:25.975Z,602.00
2024-02-21T00:12:25.978Z,603.00
2024-02-21T00:13:26.084Z,605.00
2024-02-21T00:14:26.125Z,603.00
2024-02-21T00:15:26.147Z,603.00
2024-02-21T00:16:26.288Z,602.00
2024-02-21T00:17:26.326Z,602.00
2024-02-21T00:18:29.919Z,603.00
2024-02-21T00:19:26.499Z,606.00
2024-02-21T00:20:26.441Z,602.00
2024-02-21T00:21:26.467Z,602.00
2024-02-21T00:22:26.487Z,603.00
2024-02-21T00:23:26.496Z,601.00
2024-02-21T00:24:26.515Z,601.00
2024-02-21T00:25:26.558Z,600.00
2024-02-21T00:26:26.553Z,604.00
2024-02-21T00:27:26.602Z,601.00
2024-02-21T00:28:26.681Z,602.00
2024-02-21T00:29:26.626Z,602.00
2024-02-21T00:30:26.665Z,601.00
2024-02-21T00:31:26.723Z,603.00
2024-02-21T00:32:26.767Z,601.00
2024-02-21T00:33:26.799Z,603.00
2024-02-21T00:34:26.897Z,603.00
2024-02-21T00:35:26.867Z,603.00
2024-02-21T00:36:26.815Z,603.00
2024-02-21T00:37:26.923Z,601.00
2024-02-21T00:38:26.865Z,600.00
2024-02-21T00:39:26.884Z,603.00
2024-02-21T00:40:26.922Z,601.00
2024-02-21T00:41:26.936Z,600.00
2024-02-21T00:42:26.968Z,601.00
2024-02-21T00:43:27.074Z,600.00
2024-02-21T00:44:27.066Z,601.00
2024-02-21T00:45:27.050Z,603.00
2024-02-21T00:46:27.180Z,601.00
2024-02-21T00:47:27.160Z,601.00
2024-02-21T00:48:27.221Z,602.00
2024-02-21T00:49:27.144Z,600.00
2024-02-21T00:50:27.144Z,602.00
2024-02-21T00:51:27.165Z,603.00
2024-02-21T00:52:27.248Z,601.00
2024-02-21T00:53:27.227Z,603.00
2024-02-21T00:54:31.934Z,600.00
2024-02-21T00:55:28.278Z,600.00
2024-02-21T00:56:27.283Z,601.00
2024-02-21T00:57:27.299Z,601.00
2024-02-21T00:58:27.342Z,600.00
2024-02-21T00:59:27.343Z,599.00
2024-02-21T01:00:27.380Z,601.00
2024-02-21T01:01:27.537Z,600.00
2024-02-21T01:02:27.465Z,602.00
2024-02-21T01:03:27.480Z,600.00
2024-02-21T01:04:27.510Z,600.00
2024-02-21T01:05:27.486Z,604.00
2024-02-21T01:06:27.606Z,601.00
2024-02-21T01:07:27.613Z,603.00
2024-02-21T01:08:27.676Z,602.00
2024-02-21T01:09:27.721Z,602.00
2024-02-21T01:10:27.874Z,601.00
2024-02-21T01:11:27.843Z,600.00
2024-02-21T01:12:27.895Z,604.00
2024-02-21T01:13:27.938Z,601.00
2024-02-21T01:14:27.957Z,601.00
2024-02-21T01:15:28.015Z,601.00
2024-02-21T01:16:28.119Z,604.00
2024-02-21T01:17:28.142Z,600.00
2024-02-21T01:18:28.339Z,604.00
2024-02-21T01:19:28.273Z,602.00
2024-02-21T01:20:28.313Z,600.00
2024-02-21T01:21:28.392Z,602.00
2024-02-21T01:22:28.528Z,604.00
2024-02-21T01:23:28.525Z,600.00
2024-02-21T01:24:28.589Z,600.00
2024-02-21T01:25:28.664Z,602.00
2024-02-21T01:26:28.667Z,601.00
2024-02-21T01:27:28.697Z,602.00
2024-02-21T01:28:28.788Z,601.00
2024-02-21T01:29:28.794Z,602.00
2024-02-21T01:30:28.825Z,602.00
2024-02-21T01:31:28.910Z,600.00
2024-02-21T01:32:28.960Z,603.00
2024-02-21T01:33:28.945Z,602.00
2024-02-21T01:34:32.665Z,604.00
2024-02-21T01:35:29.096Z,602.00
2024-02-21T01:36:29.003Z,603.00
2024-02-21T01:37:29.112Z,602.00
2024-02-21T01:38:29.053Z,600.00
2024-02-21T01:39:29.066Z,601.00
2024-02-21T01:40:29.145Z,601.00
2024-02-21T01:41:29.097Z,604.00
2024-02-21T01:42:29.120Z,603.00
2024-02-21T01:43:29.193Z,601.00
2024-02-21T01:44:29.168Z,600.00
2024-02-21T01:45:29.188Z,602.00
2024-02-21T01:46:29.284Z,602.00
2024-02-21T01:47:29.256Z,603.00
2024-02-21T01:48:29.387Z,600.00
2024-02-21T01:49:29.316Z,600.00
2024-02-21T01:50:29.299Z,604.00
2024-02-21T01:51:29.327Z,604.00
2024-02-21T01:52:29.456Z,600.00
2024-02-21T01:53:29.353Z,602.00
2024-02-21T01:54:29.376Z,601.00
2024-02-21T01:55:29.423Z,601.00
2024-02-21T01:56:29.424Z,600.00
2024-02-21T01:57:29.457Z,606.00
2024-02-21T01:58:29.519Z,602.00
2024-02-21T01:59:29.562Z,604.00
2024-02-21T02:00:29.729Z,603.00
2024-02-21T02:01:29.779Z,602.00
2024-02-21T02:02:29.732Z,601.00
2024-02-21T02:03:30.008Z,603.00
2024-02-21T02:04:29.995Z,601.00
2024-02-21T02:05:29.935Z,601.00
2024-02-21T02:06:30.084Z,599.00
2024-02-21T02:07:30.066Z,601.00
2024-02-21T02:08:30.046Z,601.00
2024-02-21T02:09:30.077Z,603.00
2024-02-21T02:10:30.113Z,604.00
2024-02-21T02:11:30.171Z,600.00
2024-02-21T02:12:30.187Z,602.00
2024-02-21T02:13:30.252Z,600.00
2024-02-21T02:14:30.275Z,600.00
2024-02-21T02:15:30.323Z,602.00
2024-02-21T02:16:30.485Z,602.00
2024-02-21T02:17:30.499Z,603.00
2024-02-21T02:18:30.559Z,602.00
2024-02-21T02:19:30.704Z,600.00
2024-02-21T02:20:30.736Z,602.00
2024-02-21T02:21:30.696Z,601.00
2024-02-21T02:22:30.839Z,604.00
2024-02-21T02:23:30.839Z,603.00
2024-02-21T02:24:30.857Z,603.00
2024-02-21T02:25:30.987Z,601.00
2024-02-21T02:26:30.946Z,601.00
2024-02-21T02:27:31.001Z,600.00
2024-02-21T02:28:31.073Z,603.00
2024-02-21T02:29:31.063Z,601.00
2024-02-21T02:30:31.100Z,600.00
2024-02-21T02:31:31.145Z,601.00
2024-02-21T02:32:31.233Z,600.00
2024-02-21T02:33:31.268Z,601.00
2024-02-21T02:34:31.358Z,601.00
2024-02-21T02:35:31.263Z,604.00
2024-02-21T02:36:31.289Z,602.00
2024-02-21T02:37:31.337Z,600.00
2024-02-21T02:38:31.372Z,601.00
2024-02-21T02:39:31.401Z,603.00
2024-02-21T02:40:31.430Z,603.00
2024-02-21T02:41:31.459Z,601.00
2024-02-21T02:42:31.497Z,603.00
2024-02-21T02:43:31.525Z,600.00
2024-02-21T02:44:31.601Z,603.00
2024-02-21T02:45:31.597Z,605.00
2024-02-21T02:46:31.676Z,605.00
2024-02-21T02:47:31.766Z,599.00
2024-02-21T02:48:31.823Z,601.00
2024-02-21T02:49:31.799Z,605.00
2024-02-21T02:50:32.080Z,603.00
2024-02-21T02:51:31.811Z,602.00
2024-02-21T02:52:31.957Z,603.00
2024-02-21T02:53:31.952Z,603.00
2024-02-21T02:54:32.035Z,602.00
2024-02-21T02:55:32.148Z,603.00
2024-02-21T02:56:32.151Z,601.00
2024-02-21T02:57:32.153Z,603.00
2024-02-21T02:58:32.252Z,600.00
2024-02-21T02:59:32.226Z,605.00
2024-02-21T03:00:32.347Z,602.00
2024-02-21T03:01:32.337Z,603.00
2024-02-21T03:02:32.365Z,603.00
2024-02-21T03:03:32.418Z,600.00
2024-02-21T03:04:32.631Z,601.00
2024-02-21T03:05:32.581Z,602.00
2024-02-21T03:06:32.569Z,605.00
2024-02-21T03:07:32.574Z,600.00
2024-02-21T03:08:32.624Z,602.00
2024-02-21T03:09:32.672Z,603.00
2024-02-21T03:10:32.726Z,602.00
2024-02-21T03:11:32.841Z,604.00
2024-02-21T03:12:32.796Z,603.00
2024-02-21T03:13:32.847Z,600.00
2024-02-21T03:14:32.884Z,602.00
2024-02-21T03:15:32.960Z,604.00
2024-02-21T03:16:33.064Z,605.00
2024-02-21T03:17:33.106Z,605.00
2024-02-21T03:18:33.281Z,605.00
2024-02-21T03:19:33.301Z,601.00
2024-02-21T03:20:33.320Z,600.00
2024-02-21T03:21:33.412Z,603.00
2024-02-21T03:22:33.485Z,601.00
2024-02-21T03:23:33.495Z,602.00
2024-02-21T03:24:33.551Z,604.00
2024-02-21T03:25:33.640Z,602.00
2024-02-21T03:26:33.730Z,602.00
2024-02-21T03:27:33.786Z,604.00
2024-02-21T03:28:33.866Z,601.00
2024-02-21T03:29:33.947Z,602.00
2024-02-21T03:30:34.014Z,603.00
2024-02-21T03:31:34.171Z,602.00
2024-02-21T03:32:34.256Z,604.00
2024-02-21T03:33:34.322Z,605.00
2024-02-21T03:34:34.407Z,601.00
2024-02-21T03:35:34.439Z,603.00
2024-02-21T03:36:34.492Z,601.00
2024-02-21T03:37:34.571Z,601.00
2024-02-21T03:38:34.618Z,606.00
2024-02-21T03:39:34.710Z,602.00
2024-02-21T03:40:34.823Z,601.00
2024-02-21T03:41:34.840Z,600.00
2024-02-21T03:42:34.925Z,602.00
2024-02-21T03:43:35.048Z,603.00
2024-02-21T03:44:35.067Z,603.00
2024-02-21T03:45:35.168Z,604.00
2024-02-21T03:46:35.267Z,600.00
2024-02-21T03:47:35.324Z,603.00
2024-02-21T03:48:35.395Z,601.00
2024-02-21T03:49:35.517Z,603.00
2024-02-21T03:50:35.630Z,602.00
2024-02-21T03:51:35.666Z,601.00
2024-02-21T03:52:35.801Z,602.00
2024-02-21T03:53:35.854Z,602.00
2024-02-21T03:54:35.934Z,603.00
2024-02-21T03:55:36.050Z,603.00
2024-02-21T03:56:36.073Z,603.00
2024-02-21T03:57:36.162Z,603.00
2024-02-21T03:58:36.291Z,603.00
2024-02-21T03:59:36.312Z,601.00
2024-02-21T04:00:36.447Z,604.00
2024-02-21T04:01:36.597Z,607.00
2024-02-21T04:02:36.527Z,604.00
2024-02-21T04:03:36.631Z,602.00
2024-02-21T04:04:36.737Z,604.00
2024-02-21T04:05:36.929Z,604.00
2024-02-21T04:06:36.835Z,603.00
2024-02-21T04:07:36.922Z,602.00
2024-02-21T04:08:37.261Z,603.00
2024-02-21T04:09:37.075Z,602.00
2024-02-21T04:10:37.190Z,601.00
2024-02-21T04:11:37.267Z,600.00
2024-02-21T04:12:37.361Z,600.00
2024-02-21T04:13:37.455Z,600.00
2024-02-21T04:14:37.547Z,602.00
2024-02-21T04:15:37.635Z,601.00
2024-02-21T04:16:37.734Z,603.00
2024-02-21T04:17:37.885Z,602.00
2024-02-21T04:18:37.909Z,600.00
2024-02-21T04:19:38.082Z,605.00
2024-02-21T04:20:38.153Z,603.00
2024-02-21T04:21:38.220Z,602.00
2024-02-21T04:22:38.356Z,603.00
2024-02-21T04:23:38.360Z,601.00
2024-02-21T04:24:38.451Z,603.00
2024-02-21T04:25:38.577Z,602.00
2024-02-21T04:26:38.627Z,602.00
2024-02-21T04:27:38.703Z,602.00
2024-02-21T04:28:38.831Z,603.00
2024-02-21T04:29:38.941Z,601.00
2024-02-21T04:30:38.980Z,603.00
2024-02-21T04:31:39.103Z,600.00
2024-02-21T04:32:39.199Z,604.00
2024-02-21T04:33:39.239Z,605.00
2024-02-21T04:34:39.443Z,605.00
2024-02-21T04:35:39.465Z,605.00
2024-02-21T04:36:39.478Z,603.00
2024-02-21T04:37:39.607Z,598.00
2024-02-21T04:38:39.778Z,601.00
2024-02-21T04:39:39.737Z,604.00
2024-02-21T04:40:39.858Z,608.00
2024-02-21T04:41:39.898Z,607.00
2024-02-21T04:42:39.975Z,600.00
2024-02-21T04:43:40.101Z,608.00
2024-02-21T04:44:40.144Z,606.00
2024-02-21T04:45:40.239Z,602.00
2024-02-21T04:46:40.357Z,606.00
2024-02-21T04:47:40.446Z,605.00
2024-02-21T04:48:40.487Z,608.00
2024-02-21T04:49:40.640Z,608.00
2024-02-21T04:50:40.708Z,607.00
2024-02-21T04:51:40.717Z,606.00
2024-02-21T04:52:40.832Z,606.00
2024-02-21T04:53:40.888Z,604.00
2024-02-21T04:54:40.959Z,606.00
2024-02-21T04:55:41.080Z,610.00
2024-02-21T04:56:41.111Z,607.00
2024-02-21T04:57:48.487Z,600.00
2024-02-21T04:58:48.573Z,600.00
2024-02-21T04:59:48.598Z,600.00
2024-02-21T05:00:48.637Z,600.00
2024-02-21T05:01:48.662Z,600.00
2024-02-21T05:02:48.674Z,600.00
2024-02-21T05:03:48.717Z,601.00
2024-02-21T05:04:48.844Z,605.00
2024-02-21T05:05:48.858Z,601.00
2024-02-21T05:06:48.864Z,604.00
2024-02-21T05:07:48.974Z,607.00
2024-02-21T05:08:48.947Z,609.00
2024-02-21T05:09:48.940Z,603.00
2024-02-21T05:10:49.056Z,606.00
2024-02-21T05:11:49.034Z,603.00
2024-02-21T05:12:49.032Z,603.00
2024-02-21T05:13:49.173Z,604.00
2024-02-21T05:14:49.104Z,605.00
2024-02-21T05:15:49.136Z,607.00
2024-02-21T05:16:49.275Z,607.00
2024-02-21T05:17:49.277Z,607.00
2024-02-21T05:18:49.304Z,613.00
2024-02-21T05:19:49.357Z,606.00
2024-02-21T05:20:49.290Z,606.00
2024-02-21T05:21:49.383Z,608.00
2024-02-21T05:22:49.584Z,606.00
2024-02-21T05:23:49.506Z,598.00
2024-02-21T05:24:49.591Z,613.00
2024-02-21T05:25:49.834Z,605.00
2024-02-21T05:26:49.724Z,608.00
2024-02-21T05:27:49.886Z,606.00
2024-02-21T05:28:50.062Z,615.00
2024-02-21T05:29:49.976Z,611.00
2024-02-21T05:30:50.039Z,611.00
2024-02-21T05:31:50.191Z,606.00
2024-02-21T05:32:50.208Z,614.00
2024-02-21T05:33:50.330Z,603.00
2024-02-21T05:34:50.400Z,607.00
2024-02-21T05:35:50.416Z,604.00
2024-02-21T05:36:50.508Z,612.00
2024-02-21T05:37:50.576Z,609.00
2024-02-21T05:38:50.643Z,601.00
2024-02-21T05:39:50.712Z,606.00
2024-02-21T05:40:50.836Z,606.00
2024-02-21T05:41:50.868Z,606.00
2024-02-21T05:42:50.952Z,601.00
2024-02-21T05:43:51.049Z,607.00
2024-02-21T05:44:51.060Z,611.00
2024-02-21T05:45:51.135Z,615.00
2024-02-21T05:46:51.279Z,614.00
2024-02-21T05:47:51.443Z,619.00
2024-02-21T05:48:51.467Z,607.00
2024-02-21T05:49:51.449Z,614.00
2024-02-21T05:50:51.508Z,618.00
2024-02-21T05:51:51.590Z,605.00
2024-02-21T05:52:51.793Z,612.00
2024-02-21T05:53:51.742Z,612.00
2024-02-21T05:54:51.801Z,601.00
2024-02-21T05:55:51.902Z,609.00
2024-02-21T05:56:51.956Z,611.00
2024-02-21T05:57:52.009Z,616.00
2024-02-21T05:58:52.138Z,617.00
2024-02-21T05:59:52.163Z,610.00
2024-02-21T06:00:52.268Z,604.00
2024-02-21T06:01:52.325Z,610.00
2024-02-21T06:02:52.364Z,614.00
2024-02-21T06:03:52.448Z,604.00
2024-02-21T06:04:52.526Z,606.00
2024-02-21T06:05:52.584Z,610.00
2024-02-21T06:06:52.681Z,614.00
2024-02-21T06:07:52.768Z,610.00
2024-02-21T06:08:52.791Z,610.00
2024-02-21T06:09:52.835Z,609.00
2024-02-21T06:10:52.999Z,609.00
2024-02-21T06:11:53.737Z,613.00
2024-02-21T06:12:53.051Z,612.00
2024-02-21T06:13:53.186Z,600.00
2024-02-21T06:14:53.263Z,603.00
2024-02-21T06:15:53.271Z,607.00
2024-02-21T06:16:53.346Z,608.00
2024-02-21T06:17:53.421Z,606.00
2024-02-21T06:18:53.509Z,604.00
2024-02-21T06:19:53.627Z,609.00
2024-02-21T06:20:53.624Z,603.00
2024-02-21T06:21:53.691Z,611.00
2024-02-21T06:22:53.817Z,617.00
2024-02-21T06:23:53.825Z,610.00
2024-02-21T06:24:53.888Z,632.00
2024-02-21T06:25:53.982Z,644.00
2024-02-21T06:26:54.027Z,642.00
2024-02-21T06:27:54.119Z,647.00
2024-02-21T06:28:55.121Z,670.00
2024-02-21T06:29:54.245Z,672.00
2024-02-21T06:30:54.306Z,688.00
2024-02-21T06:31:54.406Z,692.00
2024-02-21T06:32:54.521Z,714.00
2024-02-21T06:33:54.550Z,725.00
2024-02-21T06:34:54.686Z,754.00
2024-02-21T06:35:54.674Z,755.00
2024-02-21T06:36:54.721Z,770.00
2024-02-21T06:37:54.870Z,770.00
2024-02-21T06:38:54.847Z,793.00
2024-02-21T06:39:55.594Z,809.00
2024-02-21T06:40:54.940Z,814.00
2024-02-21T06:41:54.958Z,857.00
2024-02-21T06:42:55.028Z,853.00
2024-02-21T06:43:55.234Z,867.00
2024-02-21T06:44:55.168Z,874.00
2024-02-21T06:45:55.320Z,894.00
2024-02-21T06:46:55.445Z,906.00
2024-02-21T06:47:55.468Z,919.00
2024-02-21T06:48:55.619Z,938.00
2024-02-21T06:49:55.691Z,956.00
2024-02-21T06:50:55.707Z,986.00
2024-02-21T06:51:55.769Z,1001.00
2024-02-21T06:52:55.857Z,1005.00
2024-02-21T06:53:55.910Z,1024.00
2024-02-21T06:54:56.523Z,1049.00
2024-02-21T06:55:56.032Z,1054.00
2024-02-21T06:56:56.126Z,1065.00
2024-02-21T06:57:56.148Z,1097.00
2024-02-21T06:58:56.291Z,1108.00
2024-02-21T06:59:56.325Z,1171.00
2024-02-21T07:00:56.368Z,1266.00
2024-02-21T07:01:56.418Z,1272.00
2024-02-21T07:02:56.444Z,1283.00
2024-02-21T07:03:56.503Z,1298.00
2024-02-21T07:04:56.620Z,1316.00
2024-02-21T07:05:56.675Z,1331.00
2024-02-21T07:06:57.717Z,1331.00
2024-02-21T07:07:56.687Z,1335.00
2024-02-21T07:08:57.701Z,1332.00
2024-02-21T07:09:56.681Z,1341.00
2024-02-21T07:10:56.735Z,1354.00
2024-02-21T07:11:56.790Z,1381.00
2024-02-21T07:12:56.738Z,1415.00
2024-02-21T07:13:58.666Z,1335.00
2024-02-21T07:14:56.778Z,1349.00
2024-02-21T07:15:56.777Z,1378.00
2024-02-21T07:16:57.641Z,1415.00
2024-02-21T07:17:56.882Z,1481.00
2024-02-21T07:18:56.887Z,1499.00
2024-02-21T07:19:57.649Z,1502.00
2024-02-21T07:20:56.868Z,1518.00
2024-02-21T07:21:57.025Z,1536.00
2024-02-21T07:22:56.994Z,1532.00
2024-02-21T07:23:57.003Z,1544.00
2024-02-21T07:24:56.968Z,1565.00
2024-02-21T07:25:57.032Z,1577.00
2024-02-21T07:26:56.970Z,1588.00
2024-02-21T07:27:56.994Z,1601.00
2024-02-21T07:28:57.064Z,1574.00
2024-02-21T07:29:57.037Z,1585.00
2024-02-21T07:30:57.088Z,1580.00
2024-02-21T07:31:57.161Z,1588.00
2024-02-21T07:32:57.158Z,1580.00
2024-02-21T07:33:57.242Z,1577.00
2024-02-21T07:34:57.373Z,1568.00
2024-02-21T07:35:57.371Z,1572.00
2024-02-21T07:36:57.483Z,1570.00
2024-02-21T07:37:57.566Z,1581.00
2024-02-21T07:38:57.649Z,1566.00
2024-02-21T07:39:57.658Z,1563.00
2024-02-21T07:40:57.757Z,1564.00
2024-02-21T07:41:57.793Z,1567.00
2024-02-21T07:42:57.877Z,1572.00
2024-02-21T07:43:57.985Z,1577.00
2024-02-21T07:44:57.939Z,1582.00
2024-02-21T07:45:57.976Z,1591.00
2024-02-21T07:46:58.092Z,1602.00
2024-02-21T07:47:58.566Z,1610.00
2024-02-21T07:48:59.123Z,1628.00
2024-02-21T07:49:58.259Z,1634.00
2024-02-21T07:50:58.206Z,1648.00
2024-02-21T07:51:58.206Z,1656.00
2024-02-21T07:52:58.301Z,1659.00
2024-02-21T07:53:58.293Z,1675.00
2024-02-21T07:54:58.325Z,1677.00
2024-02-21T07:55:58.486Z,1684.00
2024-02-21T07:56:58.385Z,1691.00
2024-02-21T07:57:58.430Z,1699.00
2024-02-21T07:58:58.621Z,1715.00
2024-02-21T07:59:59.138Z,1719.00
2024-02-21T08:00:58.542Z,1740.00
2024-02-21T08:01:58.616Z,1739.00
2024-02-21T08:02:58.632Z,1751.00
2024-02-21T08:04:01.213Z,1758.00
2024-02-21T08:04:58.915Z,1764.00
2024-02-21T08:05:58.903Z,1782.00
2024-02-21T08:06:58.911Z,1800.00
2024-02-21T08:07:59.094Z,1790.00
2024-02-21T08:08:58.980Z,1804.00
2024-02-21T08:09:59.006Z,1816.00
2024-02-21T08:10:59.147Z,1829.00
2024-02-21T08:11:59.128Z,1823.00
2024-02-21T08:12:59.103Z,1846.00
2024-02-21T08:13:59.218Z,1846.00
2024-02-21T08:14:59.174Z,1851.00
2024-02-21T08:15:59.228Z,1861.00
2024-02-21T08:16:59.284Z,1870.00
2024-02-21T08:17:59.318Z,1871.00
2024-02-21T08:19:00.160Z,1880.00
2024-02-21T08:19:59.374Z,1889.00
2024-02-21T08:20:59.371Z,1890.00
2024-02-21T08:21:59.394Z,1904.00
2024-02-21T08:22:59.495Z,1915.00
2024-02-21T08:23:59.488Z,1924.00
2024-02-21T08:24:59.545Z,1921.00
2024-02-21T08:25:59.633Z,1927.00
2024-02-21T08:26:59.614Z,1932.00
2024-02-21T08:27:59.675Z,1933.00
2024-02-21T08:28:59.736Z,1942.00
2024-02-21T08:29:59.753Z,1936.00
2024-02-21T08:30:59.801Z,1950.00
2024-02-21T08:31:59.961Z,1960.00
2024-02-21T08:32:59.991Z,1959.00
2024-02-21T08:33:59.984Z,1959.00
2024-02-21T08:35:00.092Z,1960.00
2024-02-21T08:36:00.680Z,1971.00
2024-02-21T08:37:00.174Z,1979.00
2024-02-21T08:38:00.300Z,1992.00
2024-02-21T08:39:00.328Z,1999.00
2024-02-21T08:40:00.444Z,2000.00
2024-02-21T08:41:00.669Z,2008.00
2024-02-21T08:42:00.653Z,2024.00
2024-02-21T08:43:00.693Z,2037.00
2024-02-21T08:44:00.905Z,2032.00
2024-02-21T08:45:00.818Z,2030.00
2024-02-21T08:46:00.911Z,2036.00
2024-02-21T08:47:01.121Z,2050.00
2024-02-21T08:48:01.152Z,2053.00
2024-02-21T08:49:02.140Z,2065.00
2024-02-21T08:50:08.834Z,2092.00
2024-02-21T08:51:02.330Z,2086.00
2024-02-21T08:52:01.384Z,2093.00
2024-02-21T08:53:01.311Z,2098.00
2024-02-21T08:54:01.307Z,2125.00
2024-02-21T08:55:01.349Z,2148.00
2024-02-21T08:56:01.430Z,2163.00
2024-02-21T08:57:01.352Z,2171.00
2024-02-21T08:58:01.378Z,2183.00
2024-02-21T08:59:01.414Z,2187.00
2024-02-21T09:00:01.521Z,2186.00
2024-02-21T09:01:01.541Z,2202.00
2024-02-21T09:02:01.629Z,2205.00
2024-02-21T09:03:01.685Z,2219.00
2024-02-21T09:04:01.825Z,2225.00
2024-02-21T09:05:01.986Z,2231.00
2024-02-21T09:06:02.049Z,2228.00
2024-02-21T09:07:02.026Z,2232.00
2024-02-21T09:08:02.094Z,2237.00
2024-02-21T09:09:02.247Z,2241.00
2024-02-21T09:10:03.100Z,2239.00
2024-02-21T09:11:02.473Z,2253.00
2024-02-21T09:12:02.414Z,2252.00
2024-02-21T09:13:02.465Z,2250.00
2024-02-21T09:14:02.581Z,2216.00
2024-02-21T09:15:02.689Z,2014.00
2024-02-21T09:16:02.635Z,1890.00
2024-02-21T09:17:02.775Z,1733.00
2024-02-21T09:18:02.752Z,1604.00
2024-02-21T09:19:02.879Z,1461.00
2024-02-21T09:20:03.029Z,1325.00
2024-02-21T09:21:02.953Z,1235.00
2024-02-21T09:22:02.989Z,1121.00
2024-02-21T09:23:03.167Z,1016.00
2024-02-21T09:24:03.161Z,946.00
2024-02-21T09:25:03.221Z,871.00
2024-02-21T09:26:03.269Z,812.00
2024-02-21T09:27:03.253Z,759.00
2024-02-21T09:28:03.330Z,734.00
2024-02-21T09:29:03.469Z,702.00
2024-02-21T09:30:03.561Z,669.00
2024-02-21T09:31:03.567Z,656.00
2024-02-21T09:32:03.784Z,654.00
2024-02-21T09:33:04.753Z,643.00
2024-02-21T09:34:04.051Z,635.00
2024-02-21T09:35:04.140Z,631.00
2024-02-21T09:36:03.963Z,628.00
2024-02-21T09:37:04.057Z,626.00
2024-02-21T09:38:04.177Z,619.00
2024-02-21T09:39:05.190Z,618.00
2024-02-21T09:40:04.289Z,613.00
2024-02-21T09:41:04.424Z,613.00
2024-02-21T09:42:04.775Z,610.00
2024-02-21T09:43:04.491Z,608.00
2024-02-21T09:44:04.614Z,605.00
2024-02-21T09:45:04.633Z,607.00
2024-02-21T09:46:04.679Z,600.00
2024-02-21T09:47:04.886Z,603.00
2024-02-21T09:48:04.836Z,603.00
2024-02-21T09:49:04.861Z,603.00
2024-02-21T09:50:04.903Z,600.00
2024-02-21T09:51:04.927Z,602.00
2024-02-21T09:52:04.969Z,605.00
2024-02-21T09:53:05.065Z,603.00
2024-02-21T09:54:11.976Z,600.00
2024-02-21T09:55:06.086Z,600.00
2024-02-21T09:56:05.252Z,601.00
2024-02-21T09:57:05.100Z,599.00
2024-02-21T09:58:05.114Z,598.00
2024-02-21T09:59:05.174Z,602.00
2024-02-21T10:00:05.154Z,602.00
2024-02-21T10:01:11.022Z,600.00
2024-02-21T10:02:06.297Z,600.00
2024-02-21T10:03:05.200Z,601.00
2024-02-21T10:04:05.257Z,602.00
2024-02-21T10:05:05.358Z,601.00
2024-02-21T10:06:06.636Z,603.00
2024-02-21T10:07:05.317Z,602.00
2024-02-21T10:08:05.395Z,603.00
2024-02-21T10:09:05.471Z,605.00
2024-02-21T10:10:05.305Z,602.00
2024-02-21T10:11:05.412Z,604.00
2024-02-21T10:12:05.392Z,605.00
2024-02-21T10:13:05.364Z,607.00
2024-02-21T10:14:05.496Z,607.00
2024-02-21T10:15:05.386Z,605.00
2024-02-21T10:16:05.391Z,602.00
2024-02-21T10:17:05.472Z,606.00
2024-02-21T10:18:05.595Z,603.00
2024-02-21T10:19:05.654Z,609.00
2024-02-21T10:20:05.527Z,605.00
2024-02-21T10:21:05.506Z,603.00
2024-02-21T10:22:05.588Z,602.00
2024-02-21T10:23:05.624Z,605.00
2024-02-21T10:24:05.684Z,607.00
2024-02-21T10:25:05.745Z,608.00
2024-02-21T10:26:05.903Z,606.00
2024-02-21T10:27:07.713Z,606.00
2024-02-21T10:28:06.626Z,606.00
2024-02-21T10:29:06.016Z,606.00
2024-02-21T10:30:06.592Z,606.00
2024-02-21T10:31:05.938Z,607.00
2024-02-21T10:32:06.062Z,608.00
2024-02-21T10:33:06.806Z,608.00
2024-02-21T10:34:06.077Z,602.00
2024-02-21T10:35:06.350Z,606.00
2024-02-21T10:36:06.144Z,605.00
2024-02-21T10:37:06.074Z,602.00
2024-02-21T10:38:07.189Z,602.00
2024-02-21T10:39:06.116Z,602.00
2024-02-21T10:40:06.136Z,602.00
2024-02-21T10:41:06.223Z,603.00
2024-02-21T10:42:06.193Z,602.00
2024-02-21T10:43:06.205Z,603.00
2024-02-21T10:44:06.228Z,603.00
2024-02-21T10:45:06.262Z,609.00
2024-02-21T10:46:06.277Z,611.00
2024-02-21T10:47:06.332Z,604.00
2024-02-21T10:48:06.393Z,604.00
2024-02-21T10:49:08.514Z,603.00
2024-02-21T10:50:06.435Z,603.00
2024-02-21T10:51:06.410Z,608.00
2024-02-21T10:52:07.209Z,603.00
2024-02-21T10:53:06.656Z,605.00
2024-02-21T10:54:07.225Z,603.00
2024-02-21T10:55:06.920Z,600.00
2024-02-21T10:56:06.881Z,605.00
2024-02-21T10:57:06.863Z,606.00
2024-02-21T10:58:06.912Z,602.00
2024-02-21T10:59:07.171Z,602.00
2024-02-21T11:00:07.084Z,603.00
2024-02-21T11:01:07.633Z,606.00
2024-02-21T11:02:07.916Z,603.00
2024-02-21T11:03:08.665Z,604.00
2024-02-21T11:04:07.392Z,602.00
2024-02-21T11:05:08.385Z,600.00
2024-02-21T11:06:07.476Z,604.00
2024-02-21T11:07:10.939Z,603.00
2024-02-21T11:08:07.670Z,601.00
2024-02-21T11:09:07.942Z,603.00
2024-02-21T11:10:07.603Z,603.00
2024-02-21T11:11:08.151Z,602.00
2024-02-21T11:12:07.940Z,604.00
2024-02-21T11:13:07.655Z,601.00
2024-02-21T11:14:08.686Z,600.00
2024-02-21T11:15:07.711Z,603.00
2024-02-21T11:16:07.749Z,603.00
2024-02-21T11:17:07.832Z,603.00
2024-02-21T11:18:07.911Z,602.00
2024-02-21T11:19:07.851Z,604.00
2024-02-21T11:20:07.864Z,608.00
2024-02-21T11:21:08.842Z,608.00
2024-02-21T11:22:08.685Z,610.00
2024-02-21T11:23:08.049Z,615.00
2024-02-21T11:24:07.891Z,623.00
2024-02-21T11:25:07.996Z,636.00
2024-02-21T11:26:08.110Z,642.00
2024-02-21T11:27:07.944Z,649.00
2024-02-21T11:28:08.004Z,650.00
2024-02-21T11:29:08.042Z,659.00
2024-02-21T11:30:07.996Z,663.00
2024-02-21T11:31:08.011Z,664.00
2024-02-21T11:32:08.063Z,679.00
2024-02-21T11:33:08.104Z,695.00
2024-02-21T11:34:08.131Z,703.00
2024-02-21T11:35:09.209Z,735.00
2024-02-21T11:36:08.120Z,751.00
2024-02-21T11:37:08.729Z,755.00
2024-02-21T11:38:08.243Z,786.00
2024-02-21T11:39:08.153Z,793.00
2024-02-21T11:40:08.204Z,816.00
2024-02-21T11:41:08.245Z,828.00
2024-02-21T11:42:08.212Z,836.00
2024-02-21T11:43:08.229Z,849.00
2024-02-21T11:44:09.279Z,864.00
2024-02-21T11:45:08.324Z,876.00
2024-02-21T11:46:08.329Z,896.00
2024-02-21T11:47:08.364Z,905.00
2024-02-21T11:48:08.443Z,914.00
2024-02-21T11:49:08.379Z,924.00
2024-02-21T11:50:08.391Z,937.00
2024-02-21T11:51:08.381Z,939.00
2024-02-21T11:52:08.395Z,944.00
2024-02-21T11:53:08.621Z,980.00
2024-02-21T11:54:08.457Z,984.00
2024-02-21T11:55:08.482Z,993.00
2024-02-21T11:56:08.571Z,994.00
2024-02-21T11:57:08.573Z,1003.00
2024-02-21T11:58:08.585Z,1009.00
2024-02-21T11:59:08.681Z,1020.00
2024-02-21T12:00:08.705Z,1019.00
2024-02-21T12:01:08.773Z,1029.00
2024-02-21T12:02:08.866Z,1043.00
2024-02-21T12:03:08.851Z,1037.00
2024-02-21T12:04:08.967Z,1043.00
2024-02-21T12:05:09.172Z,1051.00
2024-02-21T12:06:09.442Z,1041.00
2024-02-21T12:07:09.219Z,1052.00
2024-02-21T12:08:09.299Z,1057.00
2024-02-21T12:09:09.328Z,1057.00
2024-02-21T12:10:09.396Z,1064.00
2024-02-21T12:11:09.508Z,1061.00
2024-02-21T12:12:09.675Z,1069.00
2024-02-21T12:13:10.250Z,1065.00
2024-02-21T12:14:09.726Z,1072.00
2024-02-21T12:15:09.752Z,1066.00
2024-02-21T12:16:09.772Z,1067.00
2024-02-21T12:17:09.915Z,1069.00
2024-02-21T12:18:09.950Z,1070.00
2024-02-21T12:19:09.892Z,1071.00
2024-02-21T12:20:10.440Z,1068.00
2024-02-21T12:21:09.888Z,1069.00
2024-02-21T12:22:09.996Z,1068.00
2024-02-21T12:23:09.978Z,1066.00